Weather observations for the past three days for
Oxnard, Oxnard Airport
Imperial (Metric)
Date Time (pdt) Wind (mph) Vis. (mi.) Weather Sky Cond. Temperature (ºF) Relative Humidity Wind Chill (°F) Heat Index (°F) Pressure Precipitation (in)
Air Dwpt 6 hour altimeter (in) sea level (mb) 1 hr 3 hr 6 hr
Max. Min.
02 23:51 Calm 10.00 Fair CLR 66 60.1 81% 29.95 1014.2
02 22:51 Calm 10.00 Fair CLR 66.9 61 73.9 66.9 81% 29.95 1014.1
02 21:51 Calm 10.00 Fair CLR 68 62.1 81% 29.95 1014.2
02 20:51 W 3 10.00 Fair CLR 66.9 62.1 84% 29.95 1014.0
02 19:51 W 12 10.00 Fair CLR 68 61 78% 29.94 1013.7
02 18:51 W 12 10.00 Fair CLR 69.1 61 76% 29.94 1013.7
02 17:51 W 18 10.00 Fair CLR 71.1 61 71% 29.94 1013.8
02 16:51 W 15 10.00 Fair CLR 73.9 60.1 75 72 62% 29.95 1014.1
02 15:51 W 15 10.00 Fair CLR 75 53.1 46% 78 29.96 1014.6
02 14:51 W 13 10.00 Fair CLR 73.9 57 56% 29.98 1015.2
02 13:51 W 15 10.00 Fair CLR 73 60.1 64% 29.99 1015.5
02 12:51 SW 10 10.00 Fair CLR 73 59 62% 30 1016.0
02 11:51 SW 8 10.00 Fair CLR 73 60.1 64% 30.02 1016.3
02 10:51 SW 8 10.00 Fair CLR 72 57.9 72 57.9 61% 30.02 1016.4
02 09:51 W 5 10.00 Fair CLR 70 57 64% 30.01 1016.1
02 08:51 NE 3 10.00 Fair CLR 66 54 65% 30.01 1016.0
02 07:51 NE 5 10.00 Fair CLR 61 51.1 70% 30.01 1016.1
02 06:51 NE 3 10.00 Fair CLR 57.9 52 81% 30 1015.7
02 05:51 NE 6 10.00 A Few Clouds FEW012 57.9 52 81% 29.99 1015.3
02 04:51 NE 5 10.00 Fair CLR 59 53.1 66 59 81% 29.98 1015.2
02 03:51 Calm 10.00 Fair CLR 59 54 83% 29.99 1015.3
02 02:51 NE 3 10.00 Fair CLR 60.1 55 84% 29.98 1015.1
02 01:51 NE 5 10.00 Fair CLR 61 57 87% 29.99 1015.3
02 00:51 Calm 10.00 Fair CLR 63 57.9 84% 29.98 1015.1
01 23:51 W 6 10.00 Fair CLR 64.9 59 81% 29.97 1014.9
01 22:51 Calm 10.00 Fair CLR 66 60.1 73 64.9 81% 29.97 1014.6
01 21:51 W 5 10.00 Fair CLR 66 60.1 81% 29.96 1014.4
01 20:51 W 8 10.00 Fair CLR 68 61 78% 29.95 1014.0
01 19:51 W 13 10.00 Fair CLR 68 60.1 76% 29.93 1013.4
01 18:51 W 14 10.00 Fair CLR 70 60.1 71% 29.93 1013.4
01 17:51 W 14 10.00 Fair CLR 71.1 59 66% 29.93 1013.4
01 16:51 W 14 10.00 Fair CLR 73 57.9 73.9 70 59% 29.94 1013.9
01 15:51 W 14 10.00 Fair CLR 73 57.9 59% 29.96 1014.3
01 14:51 W 15 10.00 Fair CLR 73 60.1 64% 29.97 1014.8
01 13:51 SW 12 10.00 Fair CLR 73 57.9 59% 29.98 1015.1
01 12:51 SW 9 10.00 Fair CLR 72 57.9 61% 29.99 1015.6
01 11:51 W 9 10.00 Fair CLR 72 57.9 61% 30 1015.8
01 10:51 SW 7 10.00 Fair CLR 70 57.9 71.1 57.9 66% 30 1015.7
01 09:51 Calm 10.00 A Few Clouds FEW017 66.9 57.9 73% 29.99 1015.6
01 08:51 NE 3 9.00 Fair CLR 64.9 57.9 78% 29.99 1015.5
01 07:51 NE 7 9.00 Fair CLR 62.1 57 84% 29.98 1015.1
01 06:51 N 3 7.00 Partly Cloudy SCT015 59 55.9 90% 29.97 1014.6
01 05:51 E 3 10.00 Fair CLR 59 55 87% 29.95 1014.0
01 04:51 E 5 10.00 Fair CLR 59 55 64 59 87% 29.95 1014.2
01 03:51 NE 3 10.00 Mostly Cloudy BKN016 60.1 55.9 86% 29.95 1014.1
01 02:51 NE 3 10.00 A Few Clouds FEW016 59 55.9 90% 29.94 1013.9
01 01:51 NE 3 10.00 Fair CLR 61 57 87% 29.95 1014.1
01 00:51 Calm 10.00 Fair CLR 62.1 57.9 86% 29.95 1014.2
31 23:51 N 3 10.00 Fair CLR 62.1 57.9 86% 29.95 1014.1
31 22:51 W 6 10.00 Fair CLR 64 59 71.1 64 84% 29.93 1013.5
31 21:51 W 9 10.00 Fair CLR 64 59 84% 29.93 1013.4
31 20:51 W 13 10.00 Fair CLR 64.9 59 81% 29.92 1013.0
31 18:51 W 14 10.00 Fair CLR 68 59 73% 29.9 1012.3
31 17:51 W 15 10.00 Fair CLR 70 59 68% 29.9 1012.5
31 16:51 W 15 10.00 Fair CLR 71.1 60.1 73.9 71.1 68% 29.91 1012.6
31 15:51 W 12 10.00 Fair CLR 72 60.1 66% 29.91 1012.6
31 13:51 W 12 8.00 Fair CLR 72 61 68% 29.93 1013.5
31 12:51 W 13 10.00 Mostly Cloudy BKN015 72 61 68% 29.94 1013.9
31 11:51 W 13 G 20 6.00 Mostly Cloudy with Haze BKN015 72 61 68% 29.95 1014.3
31 10:51 W 12 9.00 Fair CLR 71.1 61 72 61 71% 29.95 1014.1
31 09:51 W 8 9.00 Fair CLR 70 61 73% 29.94 1013.6
31 08:51 W 8 7.00 Mostly Cloudy SCT009 BKN016 68 62.1 81% 29.93 1013.6
31 07:51 Calm 6.00 Fair with Haze CLR 64.9 60.1 84% 29.92 1013.2
31 06:51 Calm 6.00 Fog/Mist CLR 61 59 93% 29.9 1012.5
31 05:51 NE 3 8.00 Fair CLR 61 57.9 90% 29.89 1012.2
31 04:51 NE 3 8.00 Fair CLR 62.1 59 66.9 62.1 90% 29.88 1011.9
31 03:51 Calm 8.00 Fair CLR 63 59 87% 29.89 1012.0
31 02:51 W 3 9.00 Fair CLR 63 59 87% 29.88 1011.9
31 01:51 W 5 9.00 Fair CLR 64.9 60.1 84% 29.88 1011.8
31 00:51 W 6 8.00 Fair CLR 64.9 60.1 84% 29.88 1011.6
Date Time (pdt) Wind (mph) Vis. (mi.) Weather Sky Cond. Air Dwpt Max. Min. Relative Humidity Wind Chill (°F) Heat Index (°F) altimeter (in) sea level (mb) 1 hr 3 hr 6 hr
6 hour
Temperature (ºF) Pressure Precipitation (in)